Airfield :
LOGIN :

Register | Disclaimer

   EN    FR    IT 

 










Legend :    VFR   Marginal VFR   IFR   Intensive IFR   Very Intensive IFR
Visi :
Ceiling :
>= 8 km
>= 3000ft
5 to 8 km
1000 to 3000 ft
1500m to 5 km
500 to 1000 ft
800 to 1500m
200 to 500 ft
< 800m
< 200 ft
Symbols :   Thunderstorms  Fog  Heavy snow  Heavy precipitations  Wind > 20 kt
SIGMETs :     Misc.  Thunderstorms  Icing  Turbulence  Mountain Waves  Volcanic Ashes






- Airport Elevation : 327 ft
- IATA code : BHX


EGBB - Birmingham

CURRENT METAR :
  • 071820Z 26007KT 9999 VCSH SCT036 13/08 Q1015

EXPIRED METARs :
  • 071750Z 26006KT 9999 FEW038 13/08 Q1015
  • 071720Z 25005KT 210V280 9999 FEW040 13/08 Q1014
  • 071650Z 24005KT 190V270 9999 FEW040 14/09 Q1014
  • 071620Z 24008KT 210V280 9999 FEW040 15/10 Q1014
  • 071550Z 25008KT 210V290 9999 SCT024 15/11 Q1014

TAF TAF EGBB
Valid from the 07 at 18:00 until the 08 at 18:00 UTC


071702Z 0718/0818 23008KT 9999 FEW040
PROB30
TEMPO 0718/0721 27015G25KT
PROB30
TEMPO 0718/0720 7000 SHRA
ATIS : +44 121 780 0910



MET'MAP, your aeronautical weather chart ! - Copyright ORBIFLY December 2007 - Disclaimer

ORBIFLY MET'MAP TEAM :

Programming & Development : Alexandra Zaïnal
Original concept : Baudouin d'Aumeries
Technical & hardware support : Manuel Goepfert
Assistance : Marc-Olivier Méhu




SOURCES & CREDITS :

   NOAA